sensor_id;sensor_type;location;lat;lon;timestamp;P1;durP1;ratioP1;P2;durP2;ratioP2
3733;SDS011;1882;52.256;8.874;2024-02-23T00:02:14;5.27;;;1.60;;
3733;SDS011;1882;52.256;8.874;2024-02-23T00:04:41;2.83;;;1.50;;
3733;SDS011;1882;52.256;8.874;2024-02-23T00:07:08;2.50;;;1.50;;
3733;SDS011;1882;52.256;8.874;2024-02-23T00:09:35;4.10;;;1.50;;
3733;SDS011;1882;52.256;8.874;2024-02-23T00:12:02;2.13;;;1.20;;
3733;SDS011;1882;52.256;8.874;2024-02-23T00:14:30;3.10;;;1.50;;
3733;SDS011;1882;52.256;8.874;2024-02-23T00:16:57;3.90;;;1.37;;
3733;SDS011;1882;52.256;8.874;2024-02-23T00:19:25;3.83;;;1.20;;
3733;SDS011;1882;52.256;8.874;2024-02-23T00:21:52;8.27;;;1.53;;
3733;SDS011;1882;52.256;8.874;2024-02-23T00:24:19;2.83;;;1.43;;
3733;SDS011;1882;52.256;8.874;2024-02-23T00:26:49;3.90;;;1.33;;
3733;SDS011;1882;52.256;8.874;2024-02-23T00:29:17;2.43;;;1.47;;
3733;SDS011;1882;52.256;8.874;2024-02-23T00:31:44;5.60;;;1.50;;
3733;SDS011;1882;52.256;8.874;2024-02-23T00:34:12;1.90;;;1.20;;
3733;SDS011;1882;52.256;8.874;2024-02-23T00:36:40;1.97;;;1.40;;
3733;SDS011;1882;52.256;8.874;2024-02-23T00:39:07;2.90;;;1.23;;
3733;SDS011;1882;52.256;8.874;2024-02-23T00:41:35;2.50;;;1.47;;
3733;SDS011;1882;52.256;8.874;2024-02-23T00:44:02;3.17;;;1.47;;
3733;SDS011;1882;52.256;8.874;2024-02-23T00:46:30;1.57;;;1.30;;
3733;SDS011;1882;52.256;8.874;2024-02-23T00:48:57;2.73;;;1.30;;
3733;SDS011;1882;52.256;8.874;2024-02-23T00:51:24;1.30;;;1.10;;
3733;SDS011;1882;52.256;8.874;2024-02-23T00:53:52;1.17;;;0.93;;
3733;SDS011;1882;52.256;8.874;2024-02-23T00:56:19;1.67;;;1.20;;
3733;SDS011;1882;52.256;8.874;2024-02-23T00:58:52;1.00;;;1.00;;
3733;SDS011;1882;52.256;8.874;2024-02-23T01:01:19;1.03;;;0.93;;
3733;SDS011;1882;52.256;8.874;2024-02-23T01:03:46;0.80;;;0.80;;
3733;SDS011;1882;52.256;8.874;2024-02-23T01:06:13;1.23;;;0.90;;
3733;SDS011;1882;52.256;8.874;2024-02-23T01:08:40;1.20;;;1.10;;
3733;SDS011;1882;52.256;8.874;2024-02-23T01:11:07;1.17;;;1.07;;
3733;SDS011;1882;52.256;8.874;2024-02-23T01:13:34;1.00;;;0.90;;
3733;SDS011;1882;52.256;8.874;2024-02-23T01:16:02;2.40;;;0.97;;
3733;SDS011;1882;52.256;8.874;2024-02-23T01:18:29;1.23;;;0.90;;
3733;SDS011;1882;52.256;8.874;2024-02-23T01:20:56;0.93;;;0.93;;
3733;SDS011;1882;52.256;8.874;2024-02-23T01:23:23;1.43;;;1.03;;
3733;SDS011;1882;52.256;8.874;2024-02-23T01:25:50;1.70;;;1.00;;
3733;SDS011;1882;52.256;8.874;2024-02-23T01:28:17;2.17;;;1.20;;
3733;SDS011;1882;52.256;8.874;2024-02-23T01:30:44;1.00;;;0.90;;
3733;SDS011;1882;52.256;8.874;2024-02-23T01:33:11;2.23;;;1.30;;
3733;SDS011;1882;52.256;8.874;2024-02-23T01:35:38;1.27;;;0.90;;
3733;SDS011;1882;52.256;8.874;2024-02-23T01:38:05;1.13;;;1.03;;
3733;SDS011;1882;52.256;8.874;2024-02-23T01:40:32;1.10;;;1.00;;
3733;SDS011;1882;52.256;8.874;2024-02-23T01:43:03;2.90;;;1.20;;
3733;SDS011;1882;52.256;8.874;2024-02-23T01:45:30;1.10;;;1.00;;
3733;SDS011;1882;52.256;8.874;2024-02-23T01:47:58;0.80;;;0.80;;
3733;SDS011;1882;52.256;8.874;2024-02-23T01:50:27;1.73;;;0.83;;
3733;SDS011;1882;52.256;8.874;2024-02-23T01:52:55;1.00;;;1.00;;
3733;SDS011;1882;52.256;8.874;2024-02-23T01:55:26;1.77;;;1.00;;
3733;SDS011;1882;52.256;8.874;2024-02-23T01:57:53;1.00;;;1.00;;
3733;SDS011;1882;52.256;8.874;2024-02-23T02:00:21;1.07;;;1.00;;
3733;SDS011;1882;52.256;8.874;2024-02-23T02:02:52;1.30;;;1.20;;
3733;SDS011;1882;52.256;8.874;2024-02-23T02:05:19;1.13;;;1.03;;
3733;SDS011;1882;52.256;8.874;2024-02-23T02:07:47;1.00;;;1.00;;
3733;SDS011;1882;52.256;8.874;2024-02-23T02:10:16;0.93;;;0.93;;
3733;SDS011;1882;52.256;8.874;2024-02-23T02:12:44;1.20;;;1.10;;
3733;SDS011;1882;52.256;8.874;2024-02-23T02:15:11;1.50;;;1.27;;
3733;SDS011;1882;52.256;8.874;2024-02-23T02:17:37;1.33;;;1.10;;
3733;SDS011;1882;52.256;8.874;2024-02-23T02:20:05;1.00;;;1.00;;
3733;SDS011;1882;52.256;8.874;2024-02-23T02:22:36;1.27;;;1.10;;
3733;SDS011;1882;52.256;8.874;2024-02-23T02:25:04;1.57;;;1.30;;
3733;SDS011;1882;52.256;8.874;2024-02-23T02:27:32;2.10;;;1.80;;
3733;SDS011;1882;52.256;8.874;2024-02-23T02:29:59;1.23;;;1.13;;
3733;SDS011;1882;52.256;8.874;2024-02-23T02:32:26;2.60;;;1.40;;
3733;SDS011;1882;52.256;8.874;2024-02-23T02:34:53;1.87;;;1.60;;
3733;SDS011;1882;52.256;8.874;2024-02-23T02:37:20;4.00;;;1.80;;
3733;SDS011;1882;52.256;8.874;2024-02-23T02:39:47;2.00;;;1.60;;
3733;SDS011;1882;52.256;8.874;2024-02-23T02:42:14;2.43;;;1.60;;
3733;SDS011;1882;52.256;8.874;2024-02-23T02:44:41;1.83;;;1.50;;
3733;SDS011;1882;52.256;8.874;2024-02-23T02:47:08;2.47;;;1.53;;
3733;SDS011;1882;52.256;8.874;2024-02-23T02:49:35;3.80;;;1.43;;
3733;SDS011;1882;52.256;8.874;2024-02-23T02:52:01;2.97;;;1.80;;
3733;SDS011;1882;52.256;8.874;2024-02-23T02:54:28;3.80;;;1.60;;
3733;SDS011;1882;52.256;8.874;2024-02-23T02:56:55;2.80;;;1.83;;
3733;SDS011;1882;52.256;8.874;2024-02-23T02:59:23;2.00;;;1.67;;
3733;SDS011;1882;52.256;8.874;2024-02-23T03:01:54;2.10;;;1.77;;
3733;SDS011;1882;52.256;8.874;2024-02-23T03:04:21;2.70;;;1.90;;
3733;SDS011;1882;52.256;8.874;2024-02-23T03:06:48;2.10;;;1.90;;
3733;SDS011;1882;52.256;8.874;2024-02-23T03:09:15;2.53;;;2.00;;
3733;SDS011;1882;52.256;8.874;2024-02-23T03:11:42;3.73;;;2.23;;
3733;SDS011;1882;52.256;8.874;2024-02-23T03:14:09;2.70;;;2.10;;
3733;SDS011;1882;52.256;8.874;2024-02-23T03:16:36;2.60;;;2.40;;
3733;SDS011;1882;52.256;8.874;2024-02-23T03:19:06;2.20;;;2.10;;
3733;SDS011;1882;52.256;8.874;2024-02-23T03:21:34;4.63;;;2.17;;
3733;SDS011;1882;52.256;8.874;2024-02-23T03:24:05;3.73;;;2.40;;
3733;SDS011;1882;52.256;8.874;2024-02-23T03:26:32;2.43;;;2.27;;
3733;SDS011;1882;52.256;8.874;2024-02-23T03:28:59;3.20;;;2.50;;
3733;SDS011;1882;52.256;8.874;2024-02-23T03:31:26;2.73;;;2.53;;
3733;SDS011;1882;52.256;8.874;2024-02-23T03:33:53;6.17;;;2.50;;
3733;SDS011;1882;52.256;8.874;2024-02-23T03:36:20;5.90;;;2.70;;
3733;SDS011;1882;52.256;8.874;2024-02-23T03:38:47;6.37;;;3.17;;
3733;SDS011;1882;52.256;8.874;2024-02-23T03:41:14;2.93;;;2.63;;
3733;SDS011;1882;52.256;8.874;2024-02-23T03:43:41;2.80;;;2.50;;
3733;SDS011;1882;52.256;8.874;2024-02-23T03:46:08;3.20;;;2.73;;
3733;SDS011;1882;52.256;8.874;2024-02-23T03:48:35;3.30;;;2.60;;
3733;SDS011;1882;52.256;8.874;2024-02-23T03:51:03;4.77;;;2.63;;
3733;SDS011;1882;52.256;8.874;2024-02-23T03:53:31;4.63;;;2.37;;
3733;SDS011;1882;52.256;8.874;2024-02-23T03:55:58;3.40;;;2.50;;
3733;SDS011;1882;52.256;8.874;2024-02-23T03:58:25;3.83;;;2.20;;
3733;SDS011;1882;52.256;8.874;2024-02-23T04:00:52;2.53;;;2.30;;
3733;SDS011;1882;52.256;8.874;2024-02-23T04:03:19;3.03;;;2.30;;
3733;SDS011;1882;52.256;8.874;2024-02-23T04:05:46;5.27;;;2.57;;
3733;SDS011;1882;52.256;8.874;2024-02-23T04:08:13;6.87;;;2.40;;
3733;SDS011;1882;52.256;8.874;2024-02-23T04:10:40;2.70;;;2.00;;
3733;SDS011;1882;52.256;8.874;2024-02-23T04:13:07;3.20;;;2.00;;
3733;SDS011;1882;52.256;8.874;2024-02-23T04:15:35;6.40;;;2.20;;
3733;SDS011;1882;52.256;8.874;2024-02-23T04:18:02;7.70;;;2.40;;
3733;SDS011;1882;52.256;8.874;2024-02-23T04:20:29;5.40;;;2.20;;
3733;SDS011;1882;52.256;8.874;2024-02-23T04:22:56;3.73;;;2.10;;
3733;SDS011;1882;52.256;8.874;2024-02-23T04:25:23;2.17;;;1.97;;
3733;SDS011;1882;52.256;8.874;2024-02-23T04:27:50;2.73;;;2.00;;
3733;SDS011;1882;52.256;8.874;2024-02-23T04:30:17;5.27;;;2.27;;
3733;SDS011;1882;52.256;8.874;2024-02-23T04:32:44;2.30;;;1.80;;
3733;SDS011;1882;52.256;8.874;2024-02-23T04:35:11;8.67;;;2.30;;
3733;SDS011;1882;52.256;8.874;2024-02-23T04:37:38;5.80;;;2.27;;
3733;SDS011;1882;52.256;8.874;2024-02-23T04:40:06;7.10;;;2.40;;
3733;SDS011;1882;52.256;8.874;2024-02-23T04:42:37;4.40;;;2.33;;
3733;SDS011;1882;52.256;8.874;2024-02-23T04:45:05;4.43;;;2.03;;
3733;SDS011;1882;52.256;8.874;2024-02-23T04:47:33;2.90;;;2.00;;
3733;SDS011;1882;52.256;8.874;2024-02-23T04:50:08;3.97;;;2.20;;
3733;SDS011;1882;52.256;8.874;2024-02-23T04:52:36;2.20;;;2.00;;
3733;SDS011;1882;52.256;8.874;2024-02-23T04:55:03;4.50;;;2.00;;
3733;SDS011;1882;52.256;8.874;2024-02-23T04:57:31;2.87;;;1.90;;
3733;SDS011;1882;52.256;8.874;2024-02-23T04:59:58;3.30;;;2.00;;
3733;SDS011;1882;52.256;8.874;2024-02-23T05:02:25;2.50;;;2.00;;
3733;SDS011;1882;52.256;8.874;2024-02-23T05:04:55;3.00;;;1.90;;
3733;SDS011;1882;52.256;8.874;2024-02-23T05:07:23;3.67;;;1.80;;
3733;SDS011;1882;52.256;8.874;2024-02-23T05:09:50;3.50;;;1.80;;
3733;SDS011;1882;52.256;8.874;2024-02-23T05:12:17;8.53;;;1.83;;
3733;SDS011;1882;52.256;8.874;2024-02-23T05:14:44;5.00;;;2.47;;
3733;SDS011;1882;52.256;8.874;2024-02-23T05:17:11;2.73;;;1.70;;
3733;SDS011;1882;52.256;8.874;2024-02-23T05:19:38;5.73;;;1.90;;
3733;SDS011;1882;52.256;8.874;2024-02-23T05:22:05;5.23;;;2.00;;
3733;SDS011;1882;52.256;8.874;2024-02-23T05:24:32;5.40;;;1.77;;
3733;SDS011;1882;52.256;8.874;2024-02-23T05:26:58;4.53;;;1.87;;
3733;SDS011;1882;52.256;8.874;2024-02-23T05:29:28;8.13;;;1.70;;
3733;SDS011;1882;52.256;8.874;2024-02-23T05:31:55;5.10;;;1.63;;
3733;SDS011;1882;52.256;8.874;2024-02-23T05:34:22;4.40;;;1.73;;
3733;SDS011;1882;52.256;8.874;2024-02-23T05:36:49;3.77;;;1.97;;
3733;SDS011;1882;52.256;8.874;2024-02-23T05:39:17;9.40;;;2.30;;
3733;SDS011;1882;52.256;8.874;2024-02-23T05:41:44;5.87;;;1.60;;
3733;SDS011;1882;52.256;8.874;2024-02-23T05:44:11;3.53;;;1.93;;
3733;SDS011;1882;52.256;8.874;2024-02-23T05:46:40;3.40;;;1.83;;
3733;SDS011;1882;52.256;8.874;2024-02-23T05:49:08;6.00;;;1.80;;
3733;SDS011;1882;52.256;8.874;2024-02-23T05:51:36;9.70;;;1.73;;
3733;SDS011;1882;52.256;8.874;2024-02-23T05:54:03;4.20;;;1.60;;
3733;SDS011;1882;52.256;8.874;2024-02-23T05:56:30;6.97;;;1.77;;
3733;SDS011;1882;52.256;8.874;2024-02-23T05:58:57;5.10;;;1.60;;
3733;SDS011;1882;52.256;8.874;2024-02-23T06:01:24;3.33;;;1.50;;
3733;SDS011;1882;52.256;8.874;2024-02-23T06:03:51;2.27;;;1.40;;
3733;SDS011;1882;52.256;8.874;2024-02-23T06:06:19;8.57;;;1.50;;
3733;SDS011;1882;52.256;8.874;2024-02-23T06:08:46;3.40;;;1.80;;
3733;SDS011;1882;52.256;8.874;2024-02-23T06:11:15;4.27;;;1.77;;
3733;SDS011;1882;52.256;8.874;2024-02-23T06:13:42;4.60;;;1.80;;
3733;SDS011;1882;52.256;8.874;2024-02-23T06:16:10;7.37;;;2.00;;
3733;SDS011;1882;52.256;8.874;2024-02-23T06:18:38;4.07;;;1.53;;
3733;SDS011;1882;52.256;8.874;2024-02-23T06:21:14;3.20;;;1.50;;
3733;SDS011;1882;52.256;8.874;2024-02-23T06:23:41;6.33;;;2.00;;
3733;SDS011;1882;52.256;8.874;2024-02-23T06:26:09;7.30;;;1.60;;
3733;SDS011;1882;52.256;8.874;2024-02-23T06:28:36;6.77;;;1.60;;
3733;SDS011;1882;52.256;8.874;2024-02-23T06:31:05;4.77;;;1.90;;
3733;SDS011;1882;52.256;8.874;2024-02-23T06:33:32;3.87;;;1.93;;
3733;SDS011;1882;52.256;8.874;2024-02-23T06:35:59;2.57;;;1.80;;
3733;SDS011;1882;52.256;8.874;2024-02-23T06:38:27;5.10;;;2.10;;
3733;SDS011;1882;52.256;8.874;2024-02-23T06:40:55;5.20;;;2.37;;
3733;SDS011;1882;52.256;8.874;2024-02-23T06:43:22;8.30;;;2.20;;
3733;SDS011;1882;52.256;8.874;2024-02-23T06:45:49;3.43;;;2.33;;
3733;SDS011;1882;52.256;8.874;2024-02-23T06:48:17;4.73;;;2.20;;
3733;SDS011;1882;52.256;8.874;2024-02-23T06:50:45;4.60;;;2.30;;
3733;SDS011;1882;52.256;8.874;2024-02-23T06:53:12;3.87;;;2.03;;
3733;SDS011;1882;52.256;8.874;2024-02-23T06:55:39;7.07;;;2.27;;
3733;SDS011;1882;52.256;8.874;2024-02-23T06:58:06;5.97;;;2.27;;
3733;SDS011;1882;52.256;8.874;2024-02-23T07:00:33;3.10;;;1.80;;
3733;SDS011;1882;52.256;8.874;2024-02-23T07:03:01;3.87;;;2.30;;
3733;SDS011;1882;52.256;8.874;2024-02-23T07:05:30;3.20;;;2.27;;
3733;SDS011;1882;52.256;8.874;2024-02-23T07:07:58;6.30;;;2.10;;
3733;SDS011;1882;52.256;8.874;2024-02-23T07:10:25;7.17;;;2.50;;
3733;SDS011;1882;52.256;8.874;2024-02-23T07:12:52;6.40;;;2.27;;
3733;SDS011;1882;52.256;8.874;2024-02-23T07:15:20;4.80;;;2.00;;
3733;SDS011;1882;52.256;8.874;2024-02-23T07:17:47;3.10;;;2.00;;
3733;SDS011;1882;52.256;8.874;2024-02-23T07:20:15;4.00;;;2.00;;
3733;SDS011;1882;52.256;8.874;2024-02-23T07:22:45;2.47;;;1.70;;
3733;SDS011;1882;52.256;8.874;2024-02-23T07:25:16;11.33;;;1.97;;
3733;SDS011;1882;52.256;8.874;2024-02-23T07:27:44;2.80;;;1.90;;
3733;SDS011;1882;52.256;8.874;2024-02-23T07:30:12;2.97;;;2.07;;
3733;SDS011;1882;52.256;8.874;2024-02-23T07:32:41;4.83;;;1.80;;
3733;SDS011;1882;52.256;8.874;2024-02-23T07:35:09;3.13;;;1.80;;
3733;SDS011;1882;52.256;8.874;2024-02-23T07:37:36;5.80;;;2.00;;
3733;SDS011;1882;52.256;8.874;2024-02-23T07:40:03;3.43;;;1.67;;
3733;SDS011;1882;52.256;8.874;2024-02-23T07:42:34;3.77;;;1.60;;
3733;SDS011;1882;52.256;8.874;2024-02-23T07:45:04;3.33;;;1.60;;
3733;SDS011;1882;52.256;8.874;2024-02-23T07:47:32;2.20;;;1.57;;
3733;SDS011;1882;52.256;8.874;2024-02-23T07:50:00;3.63;;;1.53;;
3733;SDS011;1882;52.256;8.874;2024-02-23T07:52:27;6.33;;;1.87;;
3733;SDS011;1882;52.256;8.874;2024-02-23T07:54:54;4.53;;;1.77;;
3733;SDS011;1882;52.256;8.874;2024-02-23T07:57:21;3.40;;;1.50;;
3733;SDS011;1882;52.256;8.874;2024-02-23T07:59:48;2.17;;;1.40;;
3733;SDS011;1882;52.256;8.874;2024-02-23T08:02:15;3.57;;;1.40;;
3733;SDS011;1882;52.256;8.874;2024-02-23T08:04:42;2.97;;;1.60;;
3733;SDS011;1882;52.256;8.874;2024-02-23T08:07:09;3.07;;;1.60;;
3733;SDS011;1882;52.256;8.874;2024-02-23T08:09:37;3.20;;;1.57;;
3733;SDS011;1882;52.256;8.874;2024-02-23T08:12:04;3.20;;;1.73;;
3733;SDS011;1882;52.256;8.874;2024-02-23T08:14:31;5.53;;;1.50;;
3733;SDS011;1882;52.256;8.874;2024-02-23T08:16:59;3.87;;;1.40;;
3733;SDS011;1882;52.256;8.874;2024-02-23T08:19:26;4.80;;;1.47;;
3733;SDS011;1882;52.256;8.874;2024-02-23T08:21:53;3.63;;;1.43;;
3733;SDS011;1882;52.256;8.874;2024-02-23T08:24:20;4.00;;;1.20;;
3733;SDS011;1882;52.256;8.874;2024-02-23T08:26:47;4.90;;;1.40;;
3733;SDS011;1882;52.256;8.874;2024-02-23T08:29:14;7.00;;;1.43;;
3733;SDS011;1882;52.256;8.874;2024-02-23T08:31:41;5.20;;;1.40;;
3733;SDS011;1882;52.256;8.874;2024-02-23T08:34:08;5.50;;;1.43;;
3733;SDS011;1882;52.256;8.874;2024-02-23T08:36:35;3.87;;;1.30;;
3733;SDS011;1882;52.256;8.874;2024-02-23T08:39:02;2.83;;;1.60;;
3733;SDS011;1882;52.256;8.874;2024-02-23T08:41:29;6.30;;;1.50;;
3733;SDS011;1882;52.256;8.874;2024-02-23T08:43:57;4.50;;;1.30;;
3733;SDS011;1882;52.256;8.874;2024-02-23T08:46:24;4.90;;;1.60;;
3733;SDS011;1882;52.256;8.874;2024-02-23T08:48:51;7.30;;;1.33;;
3733;SDS011;1882;52.256;8.874;2024-02-23T08:51:18;5.83;;;1.47;;
3733;SDS011;1882;52.256;8.874;2024-02-23T08:53:45;5.37;;;1.73;;
3733;SDS011;1882;52.256;8.874;2024-02-23T08:56:12;2.67;;;1.20;;
3733;SDS011;1882;52.256;8.874;2024-02-23T08:58:39;7.93;;;1.50;;
3733;SDS011;1882;52.256;8.874;2024-02-23T09:01:06;3.60;;;1.30;;
3733;SDS011;1882;52.256;8.874;2024-02-23T09:03:32;1.97;;;1.20;;
3733;SDS011;1882;52.256;8.874;2024-02-23T09:05:59;3.67;;;1.40;;
3733;SDS011;1882;52.256;8.874;2024-02-23T09:08:27;7.40;;;1.63;;
3733;SDS011;1882;52.256;8.874;2024-02-23T09:10:54;2.73;;;1.37;;
3733;SDS011;1882;52.256;8.874;2024-02-23T09:13:21;2.33;;;1.30;;
3733;SDS011;1882;52.256;8.874;2024-02-23T09:15:48;4.53;;;1.30;;
3733;SDS011;1882;52.256;8.874;2024-02-23T09:18:15;3.40;;;1.30;;
3733;SDS011;1882;52.256;8.874;2024-02-23T09:20:42;7.67;;;1.40;;
3733;SDS011;1882;52.256;8.874;2024-02-23T09:23:09;2.00;;;1.17;;
3733;SDS011;1882;52.256;8.874;2024-02-23T09:25:36;3.27;;;1.60;;
3733;SDS011;1882;52.256;8.874;2024-02-23T09:28:03;8.53;;;1.50;;
3733;SDS011;1882;52.256;8.874;2024-02-23T09:30:30;2.43;;;1.30;;
3733;SDS011;1882;52.256;8.874;2024-02-23T09:32:57;3.17;;;1.27;;
3733;SDS011;1882;52.256;8.874;2024-02-23T09:35:24;2.80;;;1.87;;
3733;SDS011;1882;52.256;8.874;2024-02-23T09:37:51;3.13;;;1.60;;
3733;SDS011;1882;52.256;8.874;2024-02-23T09:40:18;2.60;;;1.60;;
3733;SDS011;1882;52.256;8.874;2024-02-23T09:42:51;5.33;;;1.67;;
3733;SDS011;1882;52.256;8.874;2024-02-23T09:45:25;2.53;;;1.40;;
3733;SDS011;1882;52.256;8.874;2024-02-23T09:47:53;3.20;;;1.50;;
3733;SDS011;1882;52.256;8.874;2024-02-23T09:50:22;5.83;;;1.60;;
3733;SDS011;1882;52.256;8.874;2024-02-23T09:52:50;3.70;;;1.70;;
3733;SDS011;1882;52.256;8.874;2024-02-23T09:55:18;3.60;;;1.40;;
3733;SDS011;1882;52.256;8.874;2024-02-23T09:57:47;4.40;;;1.40;;
3733;SDS011;1882;52.256;8.874;2024-02-23T10:00:15;2.30;;;1.47;;
3733;SDS011;1882;52.256;8.874;2024-02-23T10:02:43;5.00;;;1.67;;
3733;SDS011;1882;52.256;8.874;2024-02-23T10:05:11;3.60;;;1.50;;
3733;SDS011;1882;52.256;8.874;2024-02-23T10:07:39;2.67;;;1.50;;
3733;SDS011;1882;52.256;8.874;2024-02-23T10:10:07;3.83;;;2.03;;
3733;SDS011;1882;52.256;8.874;2024-02-23T10:12:35;4.53;;;1.30;;
3733;SDS011;1882;52.256;8.874;2024-02-23T10:15:02;1.93;;;1.37;;
3733;SDS011;1882;52.256;8.874;2024-02-23T10:17:30;4.07;;;1.53;;
3733;SDS011;1882;52.256;8.874;2024-02-23T10:20:02;4.80;;;1.60;;
3733;SDS011;1882;52.256;8.874;2024-02-23T10:22:31;1.40;;;1.10;;
3733;SDS011;1882;52.256;8.874;2024-02-23T10:24:58;4.20;;;1.57;;
3733;SDS011;1882;52.256;8.874;2024-02-23T10:27:26;2.47;;;1.33;;
3733;SDS011;1882;52.256;8.874;2024-02-23T10:29:54;3.07;;;1.40;;
3733;SDS011;1882;52.256;8.874;2024-02-23T10:32:21;2.00;;;1.33;;
3733;SDS011;1882;52.256;8.874;2024-02-23T10:34:50;2.93;;;1.33;;
3733;SDS011;1882;52.256;8.874;2024-02-23T10:37:21;3.90;;;1.60;;
3733;SDS011;1882;52.256;8.874;2024-02-23T10:39:50;3.27;;;1.37;;
3733;SDS011;1882;52.256;8.874;2024-02-23T10:42:22;5.47;;;1.20;;
3733;SDS011;1882;52.256;8.874;2024-02-23T10:44:51;3.00;;;1.60;;
3733;SDS011;1882;52.256;8.874;2024-02-23T10:47:19;1.70;;;1.30;;
3733;SDS011;1882;52.256;8.874;2024-02-23T10:49:48;3.90;;;1.10;;
3733;SDS011;1882;52.256;8.874;2024-02-23T10:52:15;1.60;;;1.50;;
3733;SDS011;1882;52.256;8.874;2024-02-23T10:54:45;1.70;;;1.60;;
3733;SDS011;1882;52.256;8.874;2024-02-23T10:57:13;1.67;;;1.30;;
3733;SDS011;1882;52.256;8.874;2024-02-23T10:59:46;2.70;;;1.80;;
3733;SDS011;1882;52.256;8.874;2024-02-23T11:02:14;3.47;;;1.40;;
3733;SDS011;1882;52.256;8.874;2024-02-23T11:04:47;2.40;;;1.30;;
3733;SDS011;1882;52.256;8.874;2024-02-23T11:07:19;1.77;;;1.30;;
3733;SDS011;1882;52.256;8.874;2024-02-23T11:09:53;1.60;;;1.30;;
3733;SDS011;1882;52.256;8.874;2024-02-23T11:12:25;2.53;;;1.53;;
3733;SDS011;1882;52.256;8.874;2024-02-23T11:14:56;3.40;;;1.30;;
3733;SDS011;1882;52.256;8.874;2024-02-23T11:17:27;1.70;;;1.23;;
3733;SDS011;1882;52.256;8.874;2024-02-23T11:19:57;8.87;;;2.37;;
3733;SDS011;1882;52.256;8.874;2024-02-23T11:22:25;3.60;;;1.53;;
3733;SDS011;1882;52.256;8.874;2024-02-23T11:25:04;6.40;;;1.60;;
3733;SDS011;1882;52.256;8.874;2024-02-23T11:27:35;1.90;;;1.37;;
3733;SDS011;1882;52.256;8.874;2024-02-23T11:30:06;4.27;;;1.70;;
3733;SDS011;1882;52.256;8.874;2024-02-23T11:32:38;3.07;;;1.30;;
3733;SDS011;1882;52.256;8.874;2024-02-23T11:35:07;2.30;;;1.40;;
3733;SDS011;1882;52.256;8.874;2024-02-23T11:40:31;2.90;;;1.43;;
3733;SDS011;1882;52.256;8.874;2024-02-23T11:42:59;3.93;;;1.60;;
3733;SDS011;1882;52.256;8.874;2024-02-23T11:45:28;2.90;;;1.70;;
3733;SDS011;1882;52.256;8.874;2024-02-23T11:47:57;3.67;;;2.10;;
3733;SDS011;1882;52.256;8.874;2024-02-23T11:50:24;4.17;;;1.97;;
3733;SDS011;1882;52.256;8.874;2024-02-23T11:52:51;3.77;;;1.90;;
3733;SDS011;1882;52.256;8.874;2024-02-23T11:55:21;2.80;;;2.00;;
3733;SDS011;1882;52.256;8.874;2024-02-23T11:57:50;6.40;;;2.87;;
3733;SDS011;1882;52.256;8.874;2024-02-23T12:00:30;5.13;;;2.13;;
3733;SDS011;1882;52.256;8.874;2024-02-23T12:02:58;4.33;;;2.70;;
3733;SDS011;1882;52.256;8.874;2024-02-23T12:05:25;4.40;;;2.70;;
3733;SDS011;1882;52.256;8.874;2024-02-23T12:07:53;2.60;;;2.10;;
3733;SDS011;1882;52.256;8.874;2024-02-23T12:10:21;3.77;;;2.00;;
3733;SDS011;1882;52.256;8.874;2024-02-23T12:12:48;5.20;;;2.27;;
3733;SDS011;1882;52.256;8.874;2024-02-23T12:15:15;3.93;;;2.10;;
3733;SDS011;1882;52.256;8.874;2024-02-23T12:17:46;2.97;;;1.87;;
3733;SDS011;1882;52.256;8.874;2024-02-23T12:20:14;4.20;;;2.47;;
3733;SDS011;1882;52.256;8.874;2024-02-23T12:22:42;2.53;;;1.60;;
3733;SDS011;1882;52.256;8.874;2024-02-23T12:25:09;5.27;;;1.90;;
3733;SDS011;1882;52.256;8.874;2024-02-23T12:27:38;3.80;;;1.90;;
3733;SDS011;1882;52.256;8.874;2024-02-23T12:30:04;2.50;;;1.50;;
3733;SDS011;1882;52.256;8.874;2024-02-23T12:32:32;2.17;;;1.77;;
3733;SDS011;1882;52.256;8.874;2024-02-23T12:34:59;4.10;;;1.90;;
3733;SDS011;1882;52.256;8.874;2024-02-23T12:37:26;1.77;;;1.50;;
3733;SDS011;1882;52.256;8.874;2024-02-23T12:39:53;2.93;;;1.57;;
3733;SDS011;1882;52.256;8.874;2024-02-23T12:42:20;3.53;;;1.77;;
3733;SDS011;1882;52.256;8.874;2024-02-23T12:44:47;3.63;;;1.70;;
3733;SDS011;1882;52.256;8.874;2024-02-23T12:47:14;2.80;;;1.50;;
3733;SDS011;1882;52.256;8.874;2024-02-23T12:49:41;4.73;;;1.60;;
3733;SDS011;1882;52.256;8.874;2024-02-23T12:52:11;3.63;;;1.40;;
3733;SDS011;1882;52.256;8.874;2024-02-23T12:54:38;2.73;;;1.60;;
3733;SDS011;1882;52.256;8.874;2024-02-23T12:57:05;2.17;;;1.50;;
3733;SDS011;1882;52.256;8.874;2024-02-23T12:59:33;6.50;;;1.70;;
3733;SDS011;1882;52.256;8.874;2024-02-23T13:02:00;2.47;;;1.70;;
3733;SDS011;1882;52.256;8.874;2024-02-23T13:04:27;2.33;;;1.30;;
3733;SDS011;1882;52.256;8.874;2024-02-23T13:06:54;1.80;;;1.50;;
3733;SDS011;1882;52.256;8.874;2024-02-23T13:09:22;3.20;;;2.10;;
3733;SDS011;1882;52.256;8.874;2024-02-23T13:11:49;4.30;;;2.37;;
3733;SDS011;1882;52.256;8.874;2024-02-23T13:14:16;4.17;;;2.20;;
3733;SDS011;1882;52.256;8.874;2024-02-23T13:16:43;7.00;;;4.50;;
3733;SDS011;1882;52.256;8.874;2024-02-23T13:19:10;5.07;;;1.50;;
3733;SDS011;1882;52.256;8.874;2024-02-23T13:21:37;4.30;;;3.03;;
3733;SDS011;1882;52.256;8.874;2024-02-23T13:24:04;4.20;;;1.63;;
3733;SDS011;1882;52.256;8.874;2024-02-23T13:26:32;3.20;;;1.50;;
3733;SDS011;1882;52.256;8.874;2024-02-23T13:28:59;2.67;;;1.70;;
3733;SDS011;1882;52.256;8.874;2024-02-23T13:31:26;4.80;;;1.47;;
3733;SDS011;1882;52.256;8.874;2024-02-23T13:33:53;2.40;;;1.40;;
3733;SDS011;1882;52.256;8.874;2024-02-23T13:36:20;3.67;;;1.47;;
3733;SDS011;1882;52.256;8.874;2024-02-23T13:38:47;3.80;;;1.53;;
3733;SDS011;1882;52.256;8.874;2024-02-23T13:41:14;3.50;;;1.60;;
3733;SDS011;1882;52.256;8.874;2024-02-23T13:43:41;2.23;;;1.13;;
3733;SDS011;1882;52.256;8.874;2024-02-23T13:46:08;2.00;;;1.10;;
3733;SDS011;1882;52.256;8.874;2024-02-23T13:48:36;2.60;;;1.40;;
3733;SDS011;1882;52.256;8.874;2024-02-23T13:51:03;1.53;;;1.20;;
3733;SDS011;1882;52.256;8.874;2024-02-23T13:53:31;3.93;;;1.30;;
3733;SDS011;1882;52.256;8.874;2024-02-23T13:55:59;3.93;;;1.60;;
3733;SDS011;1882;52.256;8.874;2024-02-23T13:58:29;2.33;;;1.20;;
3733;SDS011;1882;52.256;8.874;2024-02-23T14:00:56;2.13;;;1.50;;
3733;SDS011;1882;52.256;8.874;2024-02-23T14:03:23;4.03;;;1.50;;
3733;SDS011;1882;52.256;8.874;2024-02-23T14:05:50;2.07;;;1.20;;
3733;SDS011;1882;52.256;8.874;2024-02-23T14:08:18;1.83;;;1.20;;
3733;SDS011;1882;52.256;8.874;2024-02-23T14:10:45;1.67;;;1.57;;
3733;SDS011;1882;52.256;8.874;2024-02-23T14:13:12;2.60;;;1.60;;
3733;SDS011;1882;52.256;8.874;2024-02-23T14:15:39;3.10;;;1.10;;
3733;SDS011;1882;52.256;8.874;2024-02-23T14:18:06;2.40;;;1.50;;
3733;SDS011;1882;52.256;8.874;2024-02-23T14:20:33;4.20;;;1.23;;
3733;SDS011;1882;52.256;8.874;2024-02-23T14:23:00;2.43;;;1.23;;
3733;SDS011;1882;52.256;8.874;2024-02-23T14:25:27;3.43;;;1.20;;
3733;SDS011;1882;52.256;8.874;2024-02-23T14:27:54;2.20;;;1.40;;
3733;SDS011;1882;52.256;8.874;2024-02-23T14:30:22;2.00;;;1.63;;
3733;SDS011;1882;52.256;8.874;2024-02-23T14:32:49;1.77;;;1.23;;
3733;SDS011;1882;52.256;8.874;2024-02-23T14:35:16;2.50;;;1.10;;
3733;SDS011;1882;52.256;8.874;2024-02-23T14:37:44;2.57;;;1.30;;
3733;SDS011;1882;52.256;8.874;2024-02-23T14:40:11;2.63;;;1.43;;
3733;SDS011;1882;52.256;8.874;2024-02-23T14:42:40;2.67;;;1.40;;
3733;SDS011;1882;52.256;8.874;2024-02-23T14:45:07;2.77;;;1.30;;
3733;SDS011;1882;52.256;8.874;2024-02-23T14:47:35;2.30;;;1.60;;
3733;SDS011;1882;52.256;8.874;2024-02-23T14:50:11;2.60;;;2.13;;
3733;SDS011;1882;52.256;8.874;2024-02-23T14:52:39;1.83;;;1.50;;
3733;SDS011;1882;52.256;8.874;2024-02-23T14:55:06;2.70;;;1.43;;
3733;SDS011;1882;52.256;8.874;2024-02-23T14:57:33;2.37;;;1.20;;
3733;SDS011;1882;52.256;8.874;2024-02-23T15:00:00;1.43;;;1.20;;
3733;SDS011;1882;52.256;8.874;2024-02-23T15:02:27;3.60;;;2.87;;
3733;SDS011;1882;52.256;8.874;2024-02-23T15:04:55;5.13;;;2.27;;
3733;SDS011;1882;52.256;8.874;2024-02-23T15:07:22;7.30;;;4.80;;
3733;SDS011;1882;52.256;8.874;2024-02-23T15:09:49;2.90;;;2.40;;
3733;SDS011;1882;52.256;8.874;2024-02-23T15:12:16;1.40;;;1.30;;
3733;SDS011;1882;52.256;8.874;2024-02-23T15:14:43;3.70;;;1.93;;
3733;SDS011;1882;52.256;8.874;2024-02-23T15:17:10;4.67;;;2.60;;
3733;SDS011;1882;52.256;8.874;2024-02-23T15:19:37;8.40;;;1.93;;
3733;SDS011;1882;52.256;8.874;2024-02-23T15:22:04;3.40;;;2.10;;